Cascade, ID

3:55 AM MDT on September 16, 2014 (GMT -0600)
ITD Little Donner ID US | Change Station
CLOSE
Current Station
Personal Weather Station
Location: Donnelly, ID
Elevation: 5238 ft
Nearby Weather Stations

Elev 5238 ft 44.58 °N, 116.04 °W | Updated 40 minutes ago

Partly Cloudy
Partly Cloudy
59.0 °F
Feels Like 59.0 °F
N
2.0
Wind Variable Wind from ENE
Gusts 2.0 mph

Today
High -- | Low -- °F
--% Chance of Precip.
Yesterday
High -- | Low -- °F
Precip. -- in
7:24 AM 7:52 PM
Waning Gibbous, 47% visible
Pressure 29.95 in
Visibility 10.0 miles
Clouds Few 10000 ft
Dew Point 41.0 °F
Humidity 52%
Rainfall 0.00 in
Snow Depth 0 in , 0 in , 1 in
UV 0 out of 12
Pollen 7.00 out of 12
Air Quality Not available.
Flu Activity Not available.
METAR KMYL 160951Z AUTO 03004KT 10SM FEW100 13/04 A3009 RMK AO2 SLP142 T01330039

More Conditions Fewer Conditions

Pressure 29.95 in
Visibility 10.0 miles
Clouds Few 10000 ft
Dew Point 41.0 °F
Humidity 52%
Rainfall 0.00 in
Snow Depth 0 in , 0 in , 1 in
UV 0 out of 12
Pollen 7.00 out of 12
Air Quality Not available.
Flu Activity Not available.
METAR KMYL 160951Z AUTO 03004KT 10SM FEW100 13/04 A3009 RMK AO2 SLP142 T01330039

More Conditions Fewer Conditions

10-Day Weather Forecast

Almanac

Astronomy

Sep. 16, 2014 Rise Set
Actual Time 7:24 AM MDT 7:52 PM MDT
Civil Twilight 6:55 AM MDT 8:21 PM MDT
Nautical Twilight 6:20 AM MDT 8:56 PM MDT
Astronomical Twilight 5:44 AM MDT 9:31 PM MDT
Moon 12:27 AM MDT 3:30 PM MDT
Length of Visible Light 13h 26m
Length of Day
12h 28m
Tomorrow will be 3m 4s shorter.
Waning Gibbous, 47% of the Moon is Illuminated
Today
Waning Gibbous
Sep 24
New
Oct 1
First Quarter
Oct 8
Full
Oct 15
Last Quarter

Today's Extremes

State Highs State Lows

Community

WunderPhotos

Upload Photos

1,753,714 photos uploaded!

WunderBlogs® & News

Nearby

Snow Depth

Station Depth Elevation
Long Valley 0 in 4890 ft
Big Creek Summit 1 in 6580 ft
Lookout 0 in 5140 ft
Schwartz Lake 0 in 8620 ft
Hemlock Butte 0 in 5810 ft

Earthquake Activity

City Distance Mag. Time & Date
Challis, Idaho 83 miles 3.0 12:58 PM MDT
2014-09-14
Minimum magnitude displayed is 2.5.

Coastal Water Temperatures

Place Temperature
No Stations Reporting

Nearby Weather Stations